sensor_id;sensor_type;location;lat;lon;timestamp;P1;durP1;ratioP1;P2;durP2;ratioP2
60873;SDS011;46715;40.642;-7.920;2022-12-18T00:00:27;52.22;;;36.03;;
60873;SDS011;46715;40.642;-7.920;2022-12-18T00:02:28;58.33;;;37.77;;
60873;SDS011;46715;40.642;-7.920;2022-12-18T00:04:30;53.95;;;37.53;;
60873;SDS011;46715;40.642;-7.920;2022-12-18T00:06:31;52.70;;;34.63;;
60873;SDS011;46715;40.642;-7.920;2022-12-18T00:08:34;53.60;;;36.42;;
60873;SDS011;46715;40.642;-7.920;2022-12-18T00:10:35;46.65;;;34.70;;
60873;SDS011;46715;40.642;-7.920;2022-12-18T00:12:36;55.87;;;36.50;;
60873;SDS011;46715;40.642;-7.920;2022-12-18T00:14:36;59.67;;;38.90;;
60873;SDS011;46715;40.642;-7.920;2022-12-18T00:16:37;48.13;;;36.23;;
60873;SDS011;46715;40.642;-7.920;2022-12-18T00:18:38;52.80;;;37.30;;
60873;SDS011;46715;40.642;-7.920;2022-12-18T00:22:40;54.55;;;36.28;;
60873;SDS011;46715;40.642;-7.920;2022-12-18T00:24:44;53.30;;;36.20;;
60873;SDS011;46715;40.642;-7.920;2022-12-18T00:26:45;48.07;;;34.93;;
60873;SDS011;46715;40.642;-7.920;2022-12-18T00:28:45;54.13;;;34.93;;
60873;SDS011;46715;40.642;-7.920;2022-12-18T00:30:46;48.77;;;32.63;;
60873;SDS011;46715;40.642;-7.920;2022-12-18T00:32:47;50.70;;;34.47;;
60873;SDS011;46715;40.642;-7.920;2022-12-18T00:34:48;50.37;;;34.00;;
60873;SDS011;46715;40.642;-7.920;2022-12-18T00:36:49;49.23;;;32.17;;
60873;SDS011;46715;40.642;-7.920;2022-12-18T00:38:49;43.20;;;29.70;;
60873;SDS011;46715;40.642;-7.920;2022-12-18T00:40:51;38.90;;;29.00;;
60873;SDS011;46715;40.642;-7.920;2022-12-18T00:42:52;43.27;;;30.83;;
60873;SDS011;46715;40.642;-7.920;2022-12-18T00:44:56;42.40;;;30.77;;
60873;SDS011;46715;40.642;-7.920;2022-12-18T00:46:57;43.77;;;28.93;;
60873;SDS011;46715;40.642;-7.920;2022-12-18T00:48:57;43.20;;;29.23;;
60873;SDS011;46715;40.642;-7.920;2022-12-18T00:50:58;42.13;;;29.27;;
60873;SDS011;46715;40.642;-7.920;2022-12-18T00:52:59;44.23;;;30.77;;
60873;SDS011;46715;40.642;-7.920;2022-12-18T00:55:00;45.97;;;29.67;;
60873;SDS011;46715;40.642;-7.920;2022-12-18T00:57:01;45.33;;;28.33;;
60873;SDS011;46715;40.642;-7.920;2022-12-18T00:59:01;34.47;;;25.97;;
60873;SDS011;46715;40.642;-7.920;2022-12-18T01:01:05;41.87;;;29.30;;
60873;SDS011;46715;40.642;-7.920;2022-12-18T01:03:09;35.45;;;26.42;;
60873;SDS011;46715;40.642;-7.920;2022-12-18T01:05:13;30.88;;;23.08;;
60873;SDS011;46715;40.642;-7.920;2022-12-18T01:07:14;31.17;;;23.02;;
60873;SDS011;46715;40.642;-7.920;2022-12-18T01:09:15;36.17;;;23.50;;
60873;SDS011;46715;40.642;-7.920;2022-12-18T01:11:17;31.23;;;22.57;;
60873;SDS011;46715;40.642;-7.920;2022-12-18T01:13:19;35.00;;;22.73;;
60873;SDS011;46715;40.642;-7.920;2022-12-18T01:15:24;29.85;;;21.52;;
60873;SDS011;46715;40.642;-7.920;2022-12-18T01:17:24;30.70;;;20.87;;
60873;SDS011;46715;40.642;-7.920;2022-12-18T01:19:25;29.03;;;20.93;;
60873;SDS011;46715;40.642;-7.920;2022-12-18T01:21:26;26.57;;;20.27;;
60873;SDS011;46715;40.642;-7.920;2022-12-18T01:23:27;32.20;;;22.73;;
60873;SDS011;46715;40.642;-7.920;2022-12-18T01:25:28;25.80;;;18.47;;
60873;SDS011;46715;40.642;-7.920;2022-12-18T01:27:28;34.10;;;19.70;;
60873;SDS011;46715;40.642;-7.920;2022-12-18T01:29:30;25.92;;;17.92;;
60873;SDS011;46715;40.642;-7.920;2022-12-18T01:31:31;29.43;;;19.70;;
60873;SDS011;46715;40.642;-7.920;2022-12-18T01:33:36;26.40;;;18.27;;
60873;SDS011;46715;40.642;-7.920;2022-12-18T01:35:40;21.57;;;14.27;;
60873;SDS011;46715;40.642;-7.920;2022-12-18T01:37:45;21.38;;;15.43;;
60873;SDS011;46715;40.642;-7.920;2022-12-18T01:39:46;23.73;;;17.03;;
60873;SDS011;46715;40.642;-7.920;2022-12-18T01:41:47;28.63;;;16.27;;
60873;SDS011;46715;40.642;-7.920;2022-12-18T01:44:46;21.63;;;14.85;;
60873;SDS011;46715;40.642;-7.920;2022-12-18T01:46:42;31.70;;;15.32;;
60873;SDS011;46715;40.642;-7.920;2022-12-18T01:48:44;29.33;;;16.77;;
60873;SDS011;46715;40.642;-7.920;2022-12-18T01:50:47;24.90;;;17.50;;
60873;SDS011;46715;40.642;-7.920;2022-12-18T01:52:51;25.38;;;16.88;;
60873;SDS011;46715;40.642;-7.920;2022-12-18T01:54:57;24.45;;;13.27;;
60873;SDS011;46715;40.642;-7.920;2022-12-18T01:57:00;24.60;;;14.68;;
60873;SDS011;46715;40.642;-7.920;2022-12-18T01:59:03;20.42;;;15.13;;
60873;SDS011;46715;40.642;-7.920;2022-12-18T02:01:07;26.73;;;15.88;;
60873;SDS011;46715;40.642;-7.920;2022-12-18T02:03:08;25.67;;;17.50;;
60873;SDS011;46715;40.642;-7.920;2022-12-18T02:05:09;25.47;;;15.27;;
60873;SDS011;46715;40.642;-7.920;2022-12-18T02:07:24;26.42;;;16.15;;
60873;SDS011;46715;40.642;-7.920;2022-12-18T02:09:33;23.27;;;15.50;;
60873;SDS011;46715;40.642;-7.920;2022-12-18T02:18:41;22.85;;;15.80;;
60873;SDS011;46715;40.642;-7.920;2022-12-18T02:20:49;23.55;;;15.98;;
60873;SDS011;46715;40.642;-7.920;2022-12-18T02:27:17;22.73;;;15.67;;
60873;SDS011;46715;40.642;-7.920;2022-12-18T02:29:24;20.35;;;14.63;;
60873;SDS011;46715;40.642;-7.920;2022-12-18T02:31:30;21.55;;;15.07;;
60873;SDS011;46715;40.642;-7.920;2022-12-18T02:33:36;21.13;;;14.73;;
60873;SDS011;46715;40.642;-7.920;2022-12-18T02:35:39;22.30;;;13.70;;
60873;SDS011;46715;40.642;-7.920;2022-12-18T02:37:43;23.85;;;15.52;;
60873;SDS011;46715;40.642;-7.920;2022-12-18T02:39:48;19.30;;;14.77;;
60873;SDS011;46715;40.642;-7.920;2022-12-18T02:41:51;20.00;;;13.75;;
60873;SDS011;46715;40.642;-7.920;2022-12-18T02:43:56;19.10;;;14.38;;
60873;SDS011;46715;40.642;-7.920;2022-12-18T02:45:59;22.52;;;14.25;;
60873;SDS011;46715;40.642;-7.920;2022-12-18T02:48:24;22.00;;;15.75;;
60873;SDS011;46715;40.642;-7.920;2022-12-18T02:52:39;23.05;;;14.90;;
60873;SDS011;46715;40.642;-7.920;2022-12-18T02:59:39;18.40;;;12.80;;
60873;SDS011;46715;40.642;-7.920;2022-12-18T03:04:53;20.25;;;13.00;;
60873;SDS011;46715;40.642;-7.920;2022-12-18T03:06:42;24.30;;;13.13;;
60873;SDS011;46715;40.642;-7.920;2022-12-18T03:08:49;19.83;;;13.25;;
60873;SDS011;46715;40.642;-7.920;2022-12-18T03:11:04;19.73;;;13.65;;
60873;SDS011;46715;40.642;-7.920;2022-12-18T03:13:10;18.60;;;12.48;;
60873;SDS011;46715;40.642;-7.920;2022-12-18T03:15:17;15.88;;;12.07;;
60873;SDS011;46715;40.642;-7.920;2022-12-18T03:17:31;19.98;;;13.10;;
60873;SDS011;46715;40.642;-7.920;2022-12-18T03:19:33;22.25;;;13.73;;
60873;SDS011;46715;40.642;-7.920;2022-12-18T03:21:38;19.17;;;12.20;;
60873;SDS011;46715;40.642;-7.920;2022-12-18T03:23:44;18.77;;;13.15;;
60873;SDS011;46715;40.642;-7.920;2022-12-18T03:25:50;20.33;;;13.10;;
60873;SDS011;46715;40.642;-7.920;2022-12-18T03:27:58;20.00;;;14.38;;
60873;SDS011;46715;40.642;-7.920;2022-12-18T03:30:04;25.95;;;14.57;;
60873;SDS011;46715;40.642;-7.920;2022-12-18T03:32:11;21.67;;;12.70;;
60873;SDS011;46715;40.642;-7.920;2022-12-18T03:34:21;19.65;;;13.55;;
60873;SDS011;46715;40.642;-7.920;2022-12-18T03:36:27;21.50;;;13.52;;
60873;SDS011;46715;40.642;-7.920;2022-12-18T03:38:31;24.40;;;14.23;;
60873;SDS011;46715;40.642;-7.920;2022-12-18T03:40:39;25.17;;;14.73;;
60873;SDS011;46715;40.642;-7.920;2022-12-18T03:42:49;19.10;;;13.77;;
60873;SDS011;46715;40.642;-7.920;2022-12-18T03:49:36;22.70;;;15.20;;
60873;SDS011;46715;40.642;-7.920;2022-12-18T03:52:03;24.73;;;15.40;;
60873;SDS011;46715;40.642;-7.920;2022-12-18T03:54:12;19.95;;;12.70;;
60873;SDS011;46715;40.642;-7.920;2022-12-18T03:56:23;21.75;;;14.80;;
60873;SDS011;46715;40.642;-7.920;2022-12-18T03:58:27;23.70;;;13.60;;
60873;SDS011;46715;40.642;-7.920;2022-12-18T04:00:41;20.05;;;14.23;;
60873;SDS011;46715;40.642;-7.920;2022-12-18T04:02:47;24.63;;;14.85;;
60873;SDS011;46715;40.642;-7.920;2022-12-18T04:04:57;18.02;;;14.18;;
60873;SDS011;46715;40.642;-7.920;2022-12-18T04:07:02;20.20;;;13.90;;
60873;SDS011;46715;40.642;-7.920;2022-12-18T04:09:07;21.98;;;14.68;;
60873;SDS011;46715;40.642;-7.920;2022-12-18T04:11:12;19.48;;;13.35;;
60873;SDS011;46715;40.642;-7.920;2022-12-18T04:13:21;22.13;;;14.33;;
60873;SDS011;46715;40.642;-7.920;2022-12-18T04:15:29;23.38;;;14.10;;
60873;SDS011;46715;40.642;-7.920;2022-12-18T04:17:35;23.02;;;13.90;;
60873;SDS011;46715;40.642;-7.920;2022-12-18T04:19:38;20.90;;;13.00;;
60873;SDS011;46715;40.642;-7.920;2022-12-18T04:21:38;17.60;;;12.93;;
60873;SDS011;46715;40.642;-7.920;2022-12-18T04:23:40;18.48;;;13.48;;
60873;SDS011;46715;40.642;-7.920;2022-12-18T04:25:41;19.98;;;13.35;;
60873;SDS011;46715;40.642;-7.920;2022-12-18T04:27:48;20.92;;;14.50;;
60873;SDS011;46715;40.642;-7.920;2022-12-18T04:29:49;23.23;;;14.43;;
60873;SDS011;46715;40.642;-7.920;2022-12-18T04:31:52;25.65;;;14.20;;
60873;SDS011;46715;40.642;-7.920;2022-12-18T04:33:53;25.45;;;13.93;;
60873;SDS011;46715;40.642;-7.920;2022-12-18T04:35:55;20.50;;;14.00;;
60873;SDS011;46715;40.642;-7.920;2022-12-18T04:37:56;20.05;;;13.65;;
60873;SDS011;46715;40.642;-7.920;2022-12-18T04:39:57;19.83;;;12.90;;
60873;SDS011;46715;40.642;-7.920;2022-12-18T04:42:06;19.95;;;13.27;;
60873;SDS011;46715;40.642;-7.920;2022-12-18T04:44:08;18.17;;;13.05;;
60873;SDS011;46715;40.642;-7.920;2022-12-18T04:46:08;24.00;;;14.43;;
60873;SDS011;46715;40.642;-7.920;2022-12-18T04:48:10;24.23;;;13.88;;
60873;SDS011;46715;40.642;-7.920;2022-12-18T04:50:11;19.07;;;13.40;;
60873;SDS011;46715;40.642;-7.920;2022-12-18T04:52:12;18.27;;;14.23;;
60873;SDS011;46715;40.642;-7.920;2022-12-18T04:54:12;20.63;;;12.50;;
60873;SDS011;46715;40.642;-7.920;2022-12-18T04:56:14;20.40;;;12.60;;
60873;SDS011;46715;40.642;-7.920;2022-12-18T04:58:15;18.65;;;12.95;;
60873;SDS011;46715;40.642;-7.920;2022-12-18T05:00:16;15.00;;;11.10;;
60873;SDS011;46715;40.642;-7.920;2022-12-18T05:02:17;20.17;;;12.30;;
60873;SDS011;46715;40.642;-7.920;2022-12-18T05:04:18;20.17;;;11.93;;
60873;SDS011;46715;40.642;-7.920;2022-12-18T05:06:19;17.73;;;11.67;;
60873;SDS011;46715;40.642;-7.920;2022-12-18T05:08:20;14.37;;;11.57;;
60873;SDS011;46715;40.642;-7.920;2022-12-18T05:10:20;20.70;;;11.27;;
60873;SDS011;46715;40.642;-7.920;2022-12-18T05:12:21;20.50;;;11.17;;
60873;SDS011;46715;40.642;-7.920;2022-12-18T05:14:22;16.77;;;12.20;;
60873;SDS011;46715;40.642;-7.920;2022-12-18T05:16:23;18.50;;;11.00;;
60873;SDS011;46715;40.642;-7.920;2022-12-18T05:18:24;18.43;;;10.17;;
60873;SDS011;46715;40.642;-7.920;2022-12-18T05:20:27;17.42;;;11.60;;
60873;SDS011;46715;40.642;-7.920;2022-12-18T05:22:28;19.00;;;12.00;;
60873;SDS011;46715;40.642;-7.920;2022-12-18T05:24:29;18.92;;;11.73;;
60873;SDS011;46715;40.642;-7.920;2022-12-18T05:26:29;18.27;;;10.73;;
60873;SDS011;46715;40.642;-7.920;2022-12-18T05:28:31;15.00;;;10.20;;
60873;SDS011;46715;40.642;-7.920;2022-12-18T05:30:33;15.27;;;10.20;;
60873;SDS011;46715;40.642;-7.920;2022-12-18T05:32:34;17.93;;;10.27;;
60873;SDS011;46715;40.642;-7.920;2022-12-18T05:34:35;16.37;;;11.10;;
60873;SDS011;46715;40.642;-7.920;2022-12-18T05:36:36;17.57;;;11.17;;
60873;SDS011;46715;40.642;-7.920;2022-12-18T05:38:37;12.13;;;9.53;;
60873;SDS011;46715;40.642;-7.920;2022-12-18T05:40:41;15.55;;;9.50;;
60873;SDS011;46715;40.642;-7.920;2022-12-18T05:42:43;14.27;;;9.75;;
60873;SDS011;46715;40.642;-7.920;2022-12-18T05:44:44;18.02;;;11.93;;
60873;SDS011;46715;40.642;-7.920;2022-12-18T05:46:45;17.47;;;10.60;;
60873;SDS011;46715;40.642;-7.920;2022-12-18T05:48:46;21.73;;;10.60;;
60873;SDS011;46715;40.642;-7.920;2022-12-18T05:50:47;16.27;;;10.57;;
60873;SDS011;46715;40.642;-7.920;2022-12-18T05:52:48;13.65;;;10.38;;
60873;SDS011;46715;40.642;-7.920;2022-12-18T05:54:49;14.90;;;8.83;;
60873;SDS011;46715;40.642;-7.920;2022-12-18T05:56:52;14.80;;;9.57;;
60873;SDS011;46715;40.642;-7.920;2022-12-18T05:58:54;14.05;;;9.25;;
60873;SDS011;46715;40.642;-7.920;2022-12-18T06:00:55;18.48;;;10.40;;
60873;SDS011;46715;40.642;-7.920;2022-12-18T06:02:56;12.80;;;9.10;;
60873;SDS011;46715;40.642;-7.920;2022-12-18T06:04:57;19.25;;;9.68;;
60873;SDS011;46715;40.642;-7.920;2022-12-18T06:06:58;16.47;;;9.97;;
60873;SDS011;46715;40.642;-7.920;2022-12-18T06:08:59;15.23;;;10.10;;
60873;SDS011;46715;40.642;-7.920;2022-12-18T06:11:01;19.02;;;10.07;;
60873;SDS011;46715;40.642;-7.920;2022-12-18T06:13:02;16.37;;;9.33;;
60873;SDS011;46715;40.642;-7.920;2022-12-18T06:15:04;15.35;;;8.75;;
60873;SDS011;46715;40.642;-7.920;2022-12-18T06:17:06;17.83;;;9.15;;
60873;SDS011;46715;40.642;-7.920;2022-12-18T06:19:06;11.60;;;8.63;;
60873;SDS011;46715;40.642;-7.920;2022-12-18T06:21:08;16.25;;;9.30;;
60873;SDS011;46715;40.642;-7.920;2022-12-18T06:23:08;17.87;;;11.37;;
60873;SDS011;46715;40.642;-7.920;2022-12-18T06:25:09;13.50;;;10.13;;
60873;SDS011;46715;40.642;-7.920;2022-12-18T06:27:10;15.05;;;9.55;;
60873;SDS011;46715;40.642;-7.920;2022-12-18T06:29:12;18.42;;;11.65;;
60873;SDS011;46715;40.642;-7.920;2022-12-18T06:31:13;14.20;;;9.93;;
60873;SDS011;46715;40.642;-7.920;2022-12-18T06:33:14;14.95;;;10.82;;
60873;SDS011;46715;40.642;-7.920;2022-12-18T06:35:15;17.88;;;10.82;;
60873;SDS011;46715;40.642;-7.920;2022-12-18T06:37:17;19.33;;;12.82;;
60873;SDS011;46715;40.642;-7.920;2022-12-18T06:39:18;18.83;;;12.30;;
60873;SDS011;46715;40.642;-7.920;2022-12-18T06:41:19;20.07;;;11.90;;
60873;SDS011;46715;40.642;-7.920;2022-12-18T06:43:21;19.58;;;12.00;;
60873;SDS011;46715;40.642;-7.920;2022-12-18T06:45:22;21.53;;;13.60;;
60873;SDS011;46715;40.642;-7.920;2022-12-18T06:47:23;22.07;;;13.13;;
60873;SDS011;46715;40.642;-7.920;2022-12-18T06:49:24;17.80;;;12.33;;
60873;SDS011;46715;40.642;-7.920;2022-12-18T06:51:25;22.30;;;13.73;;
60873;SDS011;46715;40.642;-7.920;2022-12-18T06:53:25;15.63;;;12.10;;
60873;SDS011;46715;40.642;-7.920;2022-12-18T06:55:26;16.83;;;11.13;;
60873;SDS011;46715;40.642;-7.920;2022-12-18T06:57:27;22.47;;;12.67;;
60873;SDS011;46715;40.642;-7.920;2022-12-18T06:59:28;20.13;;;12.18;;
60873;SDS011;46715;40.642;-7.920;2022-12-18T07:01:29;17.57;;;12.47;;
60873;SDS011;46715;40.642;-7.920;2022-12-18T07:03:30;18.05;;;12.55;;
60873;SDS011;46715;40.642;-7.920;2022-12-18T07:05:31;21.55;;;13.05;;
60873;SDS011;46715;40.642;-7.920;2022-12-18T07:07:33;21.53;;;12.53;;
60873;SDS011;46715;40.642;-7.920;2022-12-18T07:09:34;16.52;;;11.23;;
60873;SDS011;46715;40.642;-7.920;2022-12-18T07:11:35;17.43;;;11.80;;
60873;SDS011;46715;40.642;-7.920;2022-12-18T07:13:36;25.13;;;13.60;;
60873;SDS011;46715;40.642;-7.920;2022-12-18T07:15:37;20.75;;;13.48;;
60873;SDS011;46715;40.642;-7.920;2022-12-18T07:17:37;22.45;;;12.85;;
60873;SDS011;46715;40.642;-7.920;2022-12-18T07:19:38;17.47;;;11.73;;
60873;SDS011;46715;40.642;-7.920;2022-12-18T07:21:39;22.53;;;13.43;;
60873;SDS011;46715;40.642;-7.920;2022-12-18T07:23:40;19.67;;;12.23;;
60873;SDS011;46715;40.642;-7.920;2022-12-18T07:25:41;18.00;;;12.00;;
60873;SDS011;46715;40.642;-7.920;2022-12-18T07:27:41;19.97;;;12.00;;
60873;SDS011;46715;40.642;-7.920;2022-12-18T07:29:43;18.80;;;11.07;;
60873;SDS011;46715;40.642;-7.920;2022-12-18T07:31:43;15.37;;;11.47;;
60873;SDS011;46715;40.642;-7.920;2022-12-18T07:33:45;18.03;;;11.13;;
60873;SDS011;46715;40.642;-7.920;2022-12-18T07:35:46;14.32;;;10.63;;
60873;SDS011;46715;40.642;-7.920;2022-12-18T07:37:47;16.70;;;10.83;;
60873;SDS011;46715;40.642;-7.920;2022-12-18T07:39:47;17.47;;;10.43;;
60873;SDS011;46715;40.642;-7.920;2022-12-18T07:41:48;16.83;;;12.00;;
60873;SDS011;46715;40.642;-7.920;2022-12-18T07:44:09;16.48;;;10.55;;
60873;SDS011;46715;40.642;-7.920;2022-12-18T07:46:11;15.30;;;10.70;;
60873;SDS011;46715;40.642;-7.920;2022-12-18T07:48:13;19.65;;;11.75;;
60873;SDS011;46715;40.642;-7.920;2022-12-18T07:50:14;14.20;;;9.97;;
60873;SDS011;46715;40.642;-7.920;2022-12-18T07:52:15;16.70;;;11.50;;
60873;SDS011;46715;40.642;-7.920;2022-12-18T07:54:16;17.43;;;10.20;;
60873;SDS011;46715;40.642;-7.920;2022-12-18T07:56:17;17.83;;;12.03;;
60873;SDS011;46715;40.642;-7.920;2022-12-18T07:58:18;19.43;;;11.53;;
60873;SDS011;46715;40.642;-7.920;2022-12-18T08:00:18;19.73;;;11.57;;
60873;SDS011;46715;40.642;-7.920;2022-12-18T08:02:20;20.30;;;10.45;;
60873;SDS011;46715;40.642;-7.920;2022-12-18T08:04:21;17.20;;;11.60;;
60873;SDS011;46715;40.642;-7.920;2022-12-18T08:06:22;21.03;;;11.47;;
60873;SDS011;46715;40.642;-7.920;2022-12-18T08:08:22;14.37;;;9.87;;
60873;SDS011;46715;40.642;-7.920;2022-12-18T08:10:23;14.60;;;9.98;;
60873;SDS011;46715;40.642;-7.920;2022-12-18T08:12:24;17.90;;;9.87;;
60873;SDS011;46715;40.642;-7.920;2022-12-18T08:14:24;13.93;;;10.23;;
60873;SDS011;46715;40.642;-7.920;2022-12-18T08:16:25;14.70;;;10.37;;
60873;SDS011;46715;40.642;-7.920;2022-12-18T08:18:27;12.35;;;9.50;;
60873;SDS011;46715;40.642;-7.920;2022-12-18T08:20:28;13.48;;;9.25;;
60873;SDS011;46715;40.642;-7.920;2022-12-18T08:22:29;13.13;;;8.47;;
60873;SDS011;46715;40.642;-7.920;2022-12-18T08:24:30;13.85;;;8.82;;
60873;SDS011;46715;40.642;-7.920;2022-12-18T08:26:31;12.53;;;8.20;;
60873;SDS011;46715;40.642;-7.920;2022-12-18T08:28:32;15.13;;;7.93;;
60873;SDS011;46715;40.642;-7.920;2022-12-18T08:30:33;10.70;;;7.47;;
60873;SDS011;46715;40.642;-7.920;2022-12-18T08:32:35;12.07;;;6.78;;
60873;SDS011;46715;40.642;-7.920;2022-12-18T08:34:36;7.50;;;5.80;;
60873;SDS011;46715;40.642;-7.920;2022-12-18T08:36:37;10.60;;;5.80;;
60873;SDS011;46715;40.642;-7.920;2022-12-18T08:38:38;6.10;;;4.33;;
60873;SDS011;46715;40.642;-7.920;2022-12-18T08:40:38;6.00;;;3.67;;
60873;SDS011;46715;40.642;-7.920;2022-12-18T08:42:39;8.37;;;4.80;;
60873;SDS011;46715;40.642;-7.920;2022-12-18T08:44:58;10.10;;;3.90;;
60873;SDS011;46715;40.642;-7.920;2022-12-18T08:46:59;5.87;;;3.90;;
60873;SDS011;46715;40.642;-7.920;2022-12-18T08:49:00;8.13;;;3.63;;
60873;SDS011;46715;40.642;-7.920;2022-12-18T08:51:02;6.88;;;3.38;;
60873;SDS011;46715;40.642;-7.920;2022-12-18T08:53:03;6.47;;;3.50;;
60873;SDS011;46715;40.642;-7.920;2022-12-18T08:55:04;4.97;;;3.58;;
60873;SDS011;46715;40.642;-7.920;2022-12-18T08:57:05;4.63;;;3.35;;
60873;SDS011;46715;40.642;-7.920;2022-12-18T08:59:06;6.63;;;3.80;;
60873;SDS011;46715;40.642;-7.920;2022-12-18T09:01:07;7.63;;;4.03;;
60873;SDS011;46715;40.642;-7.920;2022-12-18T09:03:16;5.60;;;3.60;;
60873;SDS011;46715;40.642;-7.920;2022-12-18T09:05:18;7.35;;;3.90;;
60873;SDS011;46715;40.642;-7.920;2022-12-18T09:07:19;7.50;;;3.70;;
60873;SDS011;46715;40.642;-7.920;2022-12-18T09:09:19;6.90;;;3.10;;
60873;SDS011;46715;40.642;-7.920;2022-12-18T09:11:22;9.27;;;3.75;;
60873;SDS011;46715;40.642;-7.920;2022-12-18T09:13:25;5.90;;;3.72;;
60873;SDS011;46715;40.642;-7.920;2022-12-18T09:15:26;7.50;;;3.83;;
60873;SDS011;46715;40.642;-7.920;2022-12-18T09:17:26;9.60;;;4.13;;
60873;SDS011;46715;40.642;-7.920;2022-12-18T09:19:28;6.75;;;3.42;;
60873;SDS011;46715;40.642;-7.920;2022-12-18T09:21:30;13.53;;;4.53;;
60873;SDS011;46715;40.642;-7.920;2022-12-18T09:23:32;8.18;;;4.15;;
60873;SDS011;46715;40.642;-7.920;2022-12-18T09:25:33;7.60;;;4.07;;
60873;SDS011;46715;40.642;-7.920;2022-12-18T09:27:36;8.70;;;4.32;;
60873;SDS011;46715;40.642;-7.920;2022-12-18T09:29:36;10.97;;;4.87;;
60873;SDS011;46715;40.642;-7.920;2022-12-18T09:31:38;9.50;;;4.55;;
60873;SDS011;46715;40.642;-7.920;2022-12-18T09:33:39;7.03;;;4.57;;
60873;SDS011;46715;40.642;-7.920;2022-12-18T09:35:44;10.43;;;5.05;;
60873;SDS011;46715;40.642;-7.920;2022-12-18T09:37:45;6.72;;;4.60;;
60873;SDS011;46715;40.642;-7.920;2022-12-18T09:39:55;5.18;;;3.83;;
60873;SDS011;46715;40.642;-7.920;2022-12-18T09:42:08;5.07;;;4.00;;
60873;SDS011;46715;40.642;-7.920;2022-12-18T09:44:37;9.80;;;5.03;;
60873;SDS011;46715;40.642;-7.920;2022-12-18T09:47:40;7.80;;;4.20;;
60873;SDS011;46715;40.642;-7.920;2022-12-18T09:50:06;9.88;;;4.00;;
60873;SDS011;46715;40.642;-7.920;2022-12-18T09:52:24;10.85;;;5.22;;
60873;SDS011;46715;40.642;-7.920;2022-12-18T09:54:33;8.68;;;5.05;;
60873;SDS011;46715;40.642;-7.920;2022-12-18T09:56:40;10.27;;;4.97;;
60873;SDS011;46715;40.642;-7.920;2022-12-18T09:58:50;7.93;;;4.38;;
60873;SDS011;46715;40.642;-7.920;2022-12-18T10:00:58;10.15;;;4.25;;
60873;SDS011;46715;40.642;-7.920;2022-12-18T10:03:26;9.80;;;4.65;;
60873;SDS011;46715;40.642;-7.920;2022-12-18T11:09:59;6.20;;;2.72;;
60873;SDS011;46715;40.642;-7.920;2022-12-18T11:22:34;8.45;;;3.67;;
60873;SDS011;46715;40.642;-7.920;2022-12-18T11:24:49;8.65;;;4.28;;
60873;SDS011;46715;40.642;-7.920;2022-12-18T11:34:27;7.28;;;3.80;;
60873;SDS011;46715;40.642;-7.920;2022-12-18T11:36:36;11.30;;;4.18;;
60873;SDS011;46715;40.642;-7.920;2022-12-18T11:38:44;6.28;;;3.70;;
60873;SDS011;46715;40.642;-7.920;2022-12-18T11:40:50;9.40;;;4.03;;
60873;SDS011;46715;40.642;-7.920;2022-12-18T11:45:56;6.05;;;3.90;;
60873;SDS011;46715;40.642;-7.920;2022-12-18T11:51:51;11.70;;;5.38;;
60873;SDS011;46715;40.642;-7.920;2022-12-18T12:00:02;7.80;;;3.97;;
60873;SDS011;46715;40.642;-7.920;2022-12-18T12:04:37;7.43;;;3.97;;
60873;SDS011;46715;40.642;-7.920;2022-12-18T12:06:51;7.38;;;3.53;;
60873;SDS011;46715;40.642;-7.920;2022-12-18T12:11:50;7.75;;;3.95;;
60873;SDS011;46715;40.642;-7.920;2022-12-18T12:14:40;5.97;;;3.90;;
60873;SDS011;46715;40.642;-7.920;2022-12-18T12:17:03;7.55;;;4.00;;
60873;SDS011;46715;40.642;-7.920;2022-12-18T12:19:41;10.55;;;4.47;;
60873;SDS011;46715;40.642;-7.920;2022-12-18T12:22:37;7.78;;;4.00;;
60873;SDS011;46715;40.642;-7.920;2022-12-18T12:36:26;10.40;;;3.60;;
60873;SDS011;46715;40.642;-7.920;2022-12-18T12:39:06;8.95;;;3.70;;
60873;SDS011;46715;40.642;-7.920;2022-12-18T12:41:12;7.78;;;3.83;;
60873;SDS011;46715;40.642;-7.920;2022-12-18T12:43:39;8.20;;;3.15;;
60873;SDS011;46715;40.642;-7.920;2022-12-18T12:45:51;7.13;;;2.72;;
60873;SDS011;46715;40.642;-7.920;2022-12-18T12:47:55;6.78;;;3.63;;
60873;SDS011;46715;40.642;-7.920;2022-12-18T12:50:00;7.25;;;3.30;;
60873;SDS011;46715;40.642;-7.920;2022-12-18T12:52:07;5.13;;;2.42;;
60873;SDS011;46715;40.642;-7.920;2022-12-18T12:54:15;4.80;;;2.58;;
60873;SDS011;46715;40.642;-7.920;2022-12-18T12:56:24;3.22;;;1.98;;
60873;SDS011;46715;40.642;-7.920;2022-12-18T13:05:56;3.92;;;1.45;;
60873;SDS011;46715;40.642;-7.920;2022-12-18T13:08:32;3.83;;;1.20;;
60873;SDS011;46715;40.642;-7.920;2022-12-18T13:10:54;1.98;;;1.15;;
60873;SDS011;46715;40.642;-7.920;2022-12-18T13:13:15;2.97;;;1.33;;
60873;SDS011;46715;40.642;-7.920;2022-12-18T13:15:21;3.55;;;1.10;;
60873;SDS011;46715;40.642;-7.920;2022-12-18T13:17:37;3.67;;;1.40;;
60873;SDS011;46715;40.642;-7.920;2022-12-18T13:19:38;4.60;;;1.20;;
60873;SDS011;46715;40.642;-7.920;2022-12-18T13:21:39;4.63;;;1.30;;
60873;SDS011;46715;40.642;-7.920;2022-12-18T13:23:39;4.03;;;1.17;;
60873;SDS011;46715;40.642;-7.920;2022-12-18T13:25:40;4.37;;;1.17;;
60873;SDS011;46715;40.642;-7.920;2022-12-18T13:27:45;1.73;;;1.00;;
60873;SDS011;46715;40.642;-7.920;2022-12-18T13:29:55;2.95;;;1.20;;
60873;SDS011;46715;40.642;-7.920;2022-12-18T13:31:59;2.40;;;1.00;;
60873;SDS011;46715;40.642;-7.920;2022-12-18T13:36:33;3.17;;;1.20;;
60873;SDS011;46715;40.642;-7.920;2022-12-18T13:38:35;6.25;;;1.10;;
60873;SDS011;46715;40.642;-7.920;2022-12-18T13:42:50;3.58;;;0.90;;
60873;SDS011;46715;40.642;-7.920;2022-12-18T13:47:43;3.30;;;1.00;;
60873;SDS011;46715;40.642;-7.920;2022-12-18T13:49:44;4.55;;;1.02;;
60873;SDS011;46715;40.642;-7.920;2022-12-18T13:51:48;2.65;;;0.90;;
60873;SDS011;46715;40.642;-7.920;2022-12-18T13:54:00;4.05;;;1.02;;
60873;SDS011;46715;40.642;-7.920;2022-12-18T13:56:06;2.92;;;1.00;;
60873;SDS011;46715;40.642;-7.920;2022-12-18T13:58:11;2.22;;;1.25;;
60873;SDS011;46715;40.642;-7.920;2022-12-18T14:02:26;1.20;;;0.68;;
60873;SDS011;46715;40.642;-7.920;2022-12-18T14:04:35;3.45;;;1.10;;
60873;SDS011;46715;40.642;-7.920;2022-12-18T14:06:36;2.08;;;0.75;;
60873;SDS011;46715;40.642;-7.920;2022-12-18T14:08:40;3.10;;;1.20;;
60873;SDS011;46715;40.642;-7.920;2022-12-18T14:10:46;5.22;;;1.23;;
60873;SDS011;46715;40.642;-7.920;2022-12-18T14:12:49;3.30;;;1.33;;
60873;SDS011;46715;40.642;-7.920;2022-12-18T14:14:57;6.00;;;1.45;;
60873;SDS011;46715;40.642;-7.920;2022-12-18T14:16:59;4.38;;;1.50;;
60873;SDS011;46715;40.642;-7.920;2022-12-18T14:21:02;2.45;;;1.38;;
60873;SDS011;46715;40.642;-7.920;2022-12-18T14:23:23;3.88;;;1.60;;
60873;SDS011;46715;40.642;-7.920;2022-12-18T14:25:29;5.68;;;1.33;;
60873;SDS011;46715;40.642;-7.920;2022-12-18T14:27:31;3.42;;;1.13;;
60873;SDS011;46715;40.642;-7.920;2022-12-18T14:29:34;3.10;;;1.20;;
60873;SDS011;46715;40.642;-7.920;2022-12-18T14:31:35;2.90;;;1.35;;
60873;SDS011;46715;40.642;-7.920;2022-12-18T14:33:36;6.27;;;1.80;;
60873;SDS011;46715;40.642;-7.920;2022-12-18T14:35:43;4.00;;;1.92;;
60873;SDS011;46715;40.642;-7.920;2022-12-18T14:37:52;4.30;;;1.40;;
60873;SDS011;46715;40.642;-7.920;2022-12-18T14:39:59;1.77;;;1.13;;
60873;SDS011;46715;40.642;-7.920;2022-12-18T14:42:03;4.25;;;1.58;;
60873;SDS011;46715;40.642;-7.920;2022-12-18T14:44:05;4.00;;;1.80;;
60873;SDS011;46715;40.642;-7.920;2022-12-18T14:48:41;5.45;;;1.80;;